^^
Grace C. Lehan Memorial Weather Station Historical Data
Daily Summary for October 7, 2021 Units:  Both    English   Metric
Daily Weekly Monthly Yearly
  High: Low: Average:
Temperature: 73 °F /  22.8 °C 52.3 °F /  11.3 °C 61.5 °F /  16.4 °C
Dew Point: 62.3 °F /  16.8 °C 51 °F /  10.6 °C 56.5 °F /  13.6 °C
Humidity: 97% 60.5% 85%
Wind Speed: 2.6mph /  4.2km/h - 0.1mph /  0.2km/h
Wind Gust: 5mph /  8km/h - -
Wind- - East
Pressure: 30.31 in /  1026.3 hPa 30.14 in /  1020.5 hPa -
Precipitation: 0.00 in /  0 mm    
 
 
Tabular Data for October 7, 2021
Time Temperature Dew Point Pressure Wind Wind Speed Wind Gust Humidity Rainfall Rate (Hourly) solar
00:00 57.6 °F /  14.2 °C 55.6 °F /  13.1 °C 30.30in /  1026hPa Calm     93% 0.00in /  0mm 0 W/m2
00:09 57.4 °F /  14.1 °C 55.4 °F /  13 °C 30.30in /  1026hPa Calm     93% 0.00in /  0mm 0 W/m2
00:14 57.3 °F /  14.1 °C 55.3 °F /  12.9 °C 30.30in /  1026hPa Calm     93% 0.00in /  0mm 0 W/m2
00:19 57.1 °F /  13.9 °C 55.1 °F /  12.8 °C 30.30in /  1026hPa Calm     93% 0.00in /  0mm 0 W/m2
00:24 57 °F /  13.9 °C 55 °F /  12.8 °C 30.30in /  1026hPa Calm     93% 0.00in /  0mm 0 W/m2
00:29 56.9 °F /  13.8 °C 55 °F /  12.8 °C 30.30in /  1026hPa Calm     93.4% 0.00in /  0mm 0 W/m2
00:34 56.8 °F /  13.8 °C 55.1 °F /  12.8 °C 30.30in /  1026hPa Calm     94% 0.00in /  0mm 0 W/m2
00:39 56.7 °F /  13.7 °C 55 °F /  12.8 °C 30.30in /  1026hPa Calm     94% 0.00in /  0mm 0 W/m2
00:44 56.6 °F /  13.7 °C 54.9 °F /  12.7 °C 30.30in /  1026hPa Calm     94% 0.00in /  0mm 0 W/m2
00:49 56.5 °F /  13.6 °C 54.8 °F /  12.7 °C 30.30in /  1026hPa Calm     94% 0.00in /  0mm 0 W/m2
00:54 56.4 °F /  13.6 °C 54.7 °F /  12.6 °C 30.29in /  1025.6hPa Calm     94% 0.00in /  0mm 0 W/m2
00:59 56.4 °F /  13.6 °C 54.7 °F /  12.6 °C 30.29in /  1025.6hPa Calm     94% 0.00in /  0mm 0 W/m2
01:04 56.3 °F /  13.5 °C 54.6 °F /  12.6 °C 30.29in /  1025.6hPa Calm     94% 0.00in /  0mm 0 W/m2
01:09 56.2 °F /  13.4 °C 54.5 °F /  12.5 °C 30.29in /  1025.6hPa Calm     94% 0.00in /  0mm 0 W/m2
01:14 56.2 °F /  13.4 °C 54.5 °F /  12.5 °C 30.29in /  1025.6hPa Calm     94% 0.00in /  0mm 0 W/m2
01:19 56.1 °F /  13.4 °C 54.4 °F /  12.4 °C 30.29in /  1025.6hPa Calm     94% 0.00in /  0mm 0 W/m2
01:24 56 °F /  13.3 °C 54.3 °F /  12.4 °C 30.29in /  1025.6hPa Calm     94% 0.00in /  0mm 0 W/m2
01:29 55.9 °F /  13.3 °C 54.2 °F /  12.3 °C 30.29in /  1025.6hPa Calm     94% 0.00in /  0mm 0 W/m2
01:34 55.8 °F /  13.2 °C 54.1 °F /  12.3 °C 30.29in /  1025.6hPa Calm     94% 0.00in /  0mm 0 W/m2
01:39 55.7 °F /  13.2 °C 54 °F /  12.2 °C 30.29in /  1025.6hPa Calm     94% 0.00in /  0mm 0 W/m2
01:44 55.5 °F /  13.1 °C 53.9 °F /  12.2 °C 30.29in /  1025.6hPa Calm     94% 0.00in /  0mm 0 W/m2
01:49 55.4 °F /  13 °C 53.7 °F /  12.1 °C 30.29in /  1025.6hPa Calm     94% 0.00in /  0mm 0 W/m2
01:54 55.3 °F /  12.9 °C 53.6 °F /  12 °C 30.29in /  1025.6hPa Calm     94% 0.00in /  0mm 0 W/m2
01:59 55.2 °F /  12.9 °C 53.5 °F /  11.9 °C 30.29in /  1025.6hPa Calm     94% 0.00in /  0mm 0 W/m2
02:04 55.1 °F /  12.8 °C 53.4 °F /  11.9 °C 30.30in /  1026hPa Calm     94% 0.00in /  0mm 0 W/m2
02:09 55 °F /  12.8 °C 53.3 °F /  11.8 °C 30.30in /  1026hPa Calm     94% 0.00in /  0mm 0 W/m2
02:14 54.9 °F /  12.7 °C 53.2 °F /  11.8 °C 30.29in /  1025.6hPa Calm     94% 0.00in /  0mm 0 W/m2
02:19 54.8 °F /  12.7 °C 53.1 °F /  11.7 °C 30.29in /  1025.6hPa Calm     94% 0.00in /  0mm 0 W/m2
02:24 54.8 °F /  12.7 °C 53.1 °F /  11.7 °C 30.30in /  1026hPa Calm     94% 0.00in /  0mm 0 W/m2
02:29 54.7 °F /  12.6 °C 53 °F /  11.7 °C 30.30in /  1026hPa Calm     94% 0.00in /  0mm 0 W/m2
02:34 54.6 °F /  12.6 °C 52.9 °F /  11.6 °C 30.29in /  1025.6hPa Calm     94% 0.00in /  0mm 0 W/m2
02:39 54.5 °F /  12.5 °C 53.1 °F /  11.7 °C 30.29in /  1025.6hPa Calm     94.9% 0.00in /  0mm 0 W/m2
02:44 54.5 °F /  12.5 °C 53.1 °F /  11.7 °C 30.29in /  1025.6hPa Calm     95% 0.00in /  0mm 0 W/m2
02:49 54.4 °F /  12.4 °C 53 °F /  11.7 °C 30.29in /  1025.6hPa Calm     95% 0.00in /  0mm 0 W/m2
02:54 54.4 °F /  12.4 °C 53 °F /  11.7 °C 30.29in /  1025.6hPa Calm     95% 0.00in /  0mm 0 W/m2
02:59 54.4 °F /  12.4 °C 53 °F /  11.7 °C 30.28in /  1025.3hPa Calm     95% 0.00in /  0mm 0 W/m2
03:04 54.3 °F /  12.4 °C 52.9 °F /  11.6 °C 30.28in /  1025.3hPa Calm     95% 0.00in /  0mm 0 W/m2
03:09 54.2 °F /  12.3 °C 52.8 °F /  11.6 °C 30.28in /  1025.3hPa Calm     95% 0.00in /  0mm 0 W/m2
03:14 54.1 °F /  12.3 °C 52.7 °F /  11.5 °C 30.28in /  1025.3hPa Calm     95% 0.00in /  0mm 0 W/m2
03:19 54 °F /  12.2 °C 52.6 °F /  11.4 °C 30.28in /  1025.3hPa Calm     95% 0.00in /  0mm 0 W/m2
03:24 54 °F /  12.2 °C 52.6 °F /  11.4 °C 30.28in /  1025.3hPa Calm     95% 0.00in /  0mm 0 W/m2
03:29 53.9 °F /  12.2 °C 52.5 °F /  11.4 °C 30.28in /  1025.3hPa Calm     95% 0.00in /  0mm 0 W/m2
03:34 53.8 °F /  12.1 °C 52.4 °F /  11.3 °C 30.28in /  1025.3hPa Calm     95% 0.00in /  0mm 0 W/m2
03:39 53.7 °F /  12.1 °C 52.3 °F /  11.3 °C 30.28in /  1025.3hPa Calm     95% 0.00in /  0mm 0 W/m2
03:44 53.7 °F /  12.1 °C 52.3 °F /  11.3 °C 30.28in /  1025.3hPa Calm     95% 0.00in /  0mm 0 W/m2
03:49 53.7 °F /  12.1 °C 52.3 °F /  11.3 °C 30.28in /  1025.3hPa Calm     95% 0.00in /  0mm 0 W/m2
03:54 53.6 °F /  12 °C 52.2 °F /  11.2 °C 30.28in /  1025.3hPa Calm     95% 0.00in /  0mm 0 W/m2
03:59 53.5 °F /  11.9 °C 52.1 °F /  11.2 °C 30.28in /  1025.3hPa Calm     95% 0.00in /  0mm 0 W/m2
04:09 53.4 °F /  11.9 °C 52 °F /  11.1 °C 30.28in /  1025.3hPa Calm     95% 0.00in /  0mm 0 W/m2
04:14 53.2 °F /  11.8 °C 51.9 °F /  11.1 °C 30.28in /  1025.3hPa Calm     95% 0.00in /  0mm 0 W/m2
04:19 53.1 °F /  11.7 °C 51.7 °F /  10.9 °C 30.28in /  1025.3hPa Calm     95% 0.00in /  0mm 0 W/m2
04:24 52.9 °F /  11.6 °C 51.5 °F /  10.8 °C 30.28in /  1025.3hPa Calm     95% 0.00in /  0mm 0 W/m2
04:29 52.8 °F /  11.6 °C 51.4 °F /  10.8 °C 30.28in /  1025.3hPa Calm     95% 0.00in /  0mm 0 W/m2
04:34 52.8 °F /  11.6 °C 51.4 °F /  10.8 °C 30.28in /  1025.3hPa Calm     95% 0.00in /  0mm 0 W/m2
04:39 52.8 °F /  11.6 °C 51.4 °F /  10.8 °C 30.28in /  1025.3hPa Calm     95% 0.00in /  0mm 0 W/m2
04:44 52.8 °F /  11.6 °C 51.4 °F /  10.8 °C 30.28in /  1025.3hPa Calm     95% 0.00in /  0mm 0 W/m2
04:49 52.8 °F /  11.6 °C 51.4 °F /  10.8 °C 30.28in /  1025.3hPa Calm     95% 0.00in /  0mm 0 W/m2
04:54 52.8 °F /  11.6 °C 51.4 °F /  10.8 °C 30.28in /  1025.3hPa Calm     95% 0.00in /  0mm 0 W/m2
04:59 52.9 °F /  11.6 °C 51.7 °F /  10.9 °C 30.28in /  1025.3hPa Calm     95.7% 0.00in /  0mm 0 W/m2
05:04 53 °F /  11.7 °C 51.9 °F /  11.1 °C 30.29in /  1025.6hPa Calm     95.8% 0.00in /  0mm 0 W/m2
05:09 53.1 °F /  11.7 °C 52 °F /  11.1 °C 30.29in /  1025.6hPa Calm     96% 0.00in /  0mm 0 W/m2
05:14 53.2 °F /  11.8 °C 52 °F /  11.1 °C 30.29in /  1025.6hPa Calm     96% 0.00in /  0mm 0 W/m2
05:19 53.2 °F /  11.8 °C 52 °F /  11.1 °C 30.29in /  1025.6hPa Calm     95.9% 0.00in /  0mm 0 W/m2
05:24 53.1 °F /  11.7 °C 51.7 °F /  10.9 °C 30.29in /  1025.6hPa Calm     95% 0.00in /  0mm 0 W/m2
05:29 53.1 °F /  11.7 °C 51.7 °F /  10.9 °C 30.29in /  1025.6hPa Calm     95% 0.00in /  0mm 0 W/m2
05:34 53 °F /  11.7 °C 51.8 °F /  11 °C 30.29in /  1025.6hPa Calm     95.7% 0.00in /  0mm 0 W/m2
05:39 52.9 °F /  11.6 °C 51.5 °F /  10.8 °C 30.29in /  1025.6hPa Calm     95.3% 0.00in /  0mm 0 W/m2
05:44 52.8 °F /  11.6 °C 51.4 °F /  10.8 °C 30.29in /  1025.6hPa Calm     95% 0.00in /  0mm 0 W/m2
05:49 52.6 °F /  11.4 °C 51.2 °F /  10.7 °C 30.29in /  1025.6hPa Calm     95% 0.00in /  0mm 0 W/m2
05:54 52.6 °F /  11.4 °C 51.2 °F /  10.7 °C 30.29in /  1025.6hPa Calm     95% 0.00in /  0mm 0 W/m2
05:59 52.4 °F /  11.3 °C 51 °F /  10.6 °C 30.29in /  1025.6hPa Calm     95% 0.00in /  0mm 0 W/m2
06:04 52.4 °F /  11.3 °C 51 °F /  10.6 °C 30.29in /  1025.6hPa Calm     95% 0.00in /  0mm 0 W/m2
06:09 52.3 °F /  11.3 °C 51 °F /  10.6 °C 30.29in /  1025.6hPa Calm     95.2% 0.00in /  0mm 0 W/m2
06:14 52.3 °F /  11.3 °C 51.2 °F /  10.7 °C 30.29in /  1025.6hPa Calm     96% 0.00in /  0mm 0 W/m2
06:19 52.3 °F /  11.3 °C 51.2 °F /  10.7 °C 30.29in /  1025.6hPa Calm     96% 0.00in /  0mm 0 W/m2
06:24 52.4 °F /  11.3 °C 51.3 °F /  10.7 °C 30.29in /  1025.6hPa Calm     96% 0.00in /  0mm 0 W/m2
06:29 52.4 °F /  11.3 °C 51.3 °F /  10.7 °C 30.29in /  1025.6hPa Calm     96% 0.00in /  0mm 0 W/m2
06:34 52.5 °F /  11.4 °C 51.4 °F /  10.8 °C 30.29in /  1025.6hPa Calm     96% 0.00in /  0mm 0 W/m2
06:39 52.5 °F /  11.4 °C 51.4 °F /  10.8 °C 30.29in /  1025.6hPa Calm     96% 0.00in /  0mm 0 W/m2
06:44 52.5 °F /  11.4 °C 51.4 °F /  10.8 °C 30.29in /  1025.6hPa Calm     96% 0.00in /  0mm 0 W/m2
06:49 52.5 °F /  11.4 °C 51.4 °F /  10.8 °C 30.29in /  1025.6hPa Calm     96% 0.00in /  0mm 0 W/m2
06:54 52.6 °F /  11.4 °C 51.5 °F /  10.8 °C 30.29in /  1025.6hPa Calm     96% 0.00in /  0mm 0 W/m2
06:59 52.7 °F /  11.5 °C 51.6 °F /  10.9 °C 30.29in /  1025.6hPa Calm     96% 0.00in /  0mm 0 W/m2
07:04 52.7 °F /  11.5 °C 51.6 °F /  10.9 °C 30.29in /  1025.6hPa Calm     96% 0.00in /  0mm 0 W/m2
07:09 52.8 °F /  11.6 °C 51.7 °F /  10.9 °C 30.29in /  1025.6hPa Calm     96% 0.00in /  0mm 5 W/m2
07:14 52.9 °F /  11.6 °C 51.8 °F /  11 °C 30.30in /  1026hPa Calm     96% 0.00in /  0mm 9 W/m2
07:19 53 °F /  11.7 °C 51.9 °F /  11.1 °C 30.30in /  1026hPa Calm     96% 0.00in /  0mm 9 W/m2
07:24 53.1 °F /  11.7 °C 52 °F /  11.1 °C 30.30in /  1026hPa Calm     96% 0.00in /  0mm 14 W/m2
07:29 53.1 °F /  11.7 °C 52 °F /  11.1 °C 30.30in /  1026hPa Calm     96% 0.00in /  0mm 19 W/m2
07:34 53.1 °F /  11.7 °C 52 °F /  11.1 °C 30.30in /  1026hPa Calm     96% 0.00in /  0mm 19 W/m2
07:39 53.1 °F /  11.7 °C 52 °F /  11.1 °C 30.30in /  1026hPa Calm     96% 0.00in /  0mm 26 W/m2
07:44 53.1 °F /  11.7 °C 52 °F /  11.1 °C 30.30in /  1026hPa Calm     96% 0.00in /  0mm 28 W/m2
07:49 53.2 °F /  11.8 °C 52.1 °F /  11.2 °C 30.30in /  1026hPa Calm     96% 0.00in /  0mm 33 W/m2
07:54 53.2 °F /  11.8 °C 52.1 °F /  11.2 °C 30.31in /  1026.3hPa Calm     96% 0.00in /  0mm 44 W/m2
07:59 53.3 °F /  11.8 °C 52.2 °F /  11.2 °C 30.31in /  1026.3hPa Calm   1mph /  1.6km/h 96% 0.00in /  0mm 46 W/m2
08:00 53.4 °F /  11.9 °C 52.3 °F /  11.3 °C 30.30in /  1026hPa Calm   1mph /  1.6km/h 96% 0.00in /  0mm 39 W/m2
08:09 53.5 °F /  11.9 °C 52.4 °F /  11.3 °C 30.31in /  1026.3hPa Calm     96% 0.00in /  0mm 54 W/m2
08:14 53.5 °F /  11.9 °C 52.4 °F /  11.3 °C 30.30in /  1026hPa Calm     96% 0.00in /  0mm 60 W/m2
08:19 53.3 °F /  11.8 °C 52.2 °F /  11.2 °C 30.30in /  1026hPa Calm     96% 0.00in /  0mm 69 W/m2
08:24 53.3 °F /  11.8 °C 52.2 °F /  11.2 °C 30.30in /  1026hPa Calm     96% 0.00in /  0mm 76 W/m2
08:29 53.5 °F /  11.9 °C 52.4 °F /  11.3 °C 30.30in /  1026hPa Calm     96% 0.00in /  0mm 72 W/m2
08:34 53.9 °F /  12.2 °C 52.8 °F /  11.6 °C 30.30in /  1026hPa Calm     96% 0.00in /  0mm 81 W/m2
08:39 54 °F /  12.2 °C 52.9 °F /  11.6 °C 30.31in /  1026.3hPa Calm     96% 0.00in /  0mm 81 W/m2
08:44 54 °F /  12.2 °C 52.8 °F /  11.6 °C 30.31in /  1026.3hPa Calm     96% 0.00in /  0mm 97 W/m2
08:49 53.9 °F /  12.2 °C 52.8 °F /  11.6 °C 30.30in /  1026hPa Calm     96% 0.00in /  0mm 123 W/m2
08:54 53.9 °F /  12.2 °C 52.8 °F /  11.6 °C 30.30in /  1026hPa Calm     96% 0.00in /  0mm 125 W/m2
08:59 53.9 °F /  12.2 °C 52.8 °F /  11.6 °C 30.30in /  1026hPa Calm     96% 0.00in /  0mm 123 W/m2
09:04 54.2 °F /  12.3 °C 53.3 °F /  11.8 °C 30.30in /  1026hPa Calm     96.6% 0.00in /  0mm 116 W/m2
09:09 54.6 °F /  12.6 °C 53.8 °F /  12.1 °C 30.30in /  1026hPa Calm     97% 0.00in /  0mm 118 W/m2
09:14 55.1 °F /  12.8 °C 54.3 °F /  12.4 °C 30.30in /  1026hPa Calm     97% 0.00in /  0mm 120 W/m2
09:19 55.1 °F /  12.8 °C 54.3 °F /  12.4 °C 30.30in /  1026hPa Calm     97% 0.00in /  0mm 128 W/m2
09:24 55.2 °F /  12.9 °C 54.4 °F /  12.4 °C 30.29in /  1025.6hPa Calm     97% 0.00in /  0mm 178 W/m2
09:29 55.5 °F /  13.1 °C 54.7 °F /  12.6 °C 30.29in /  1025.6hPa Calm     97% 0.00in /  0mm 193 W/m2
09:34 55.5 °F /  13.1 °C 54.7 °F /  12.6 °C 30.29in /  1025.6hPa Calm     97% 0.00in /  0mm 162 W/m2
09:39 55.6 °F /  13.1 °C 54.8 °F /  12.7 °C 30.30in /  1026hPa Calm     97% 0.00in /  0mm 221 W/m2
09:44 55.6 °F /  13.1 °C 54.8 °F /  12.7 °C 30.30in /  1026hPa Calm     97% 0.00in /  0mm 185 W/m2
09:49 55.7 °F /  13.2 °C 54.9 °F /  12.7 °C 30.30in /  1026hPa Calm     97% 0.00in /  0mm 199 W/m2
09:54 55.7 °F /  13.2 °C 54.9 °F /  12.7 °C 30.30in /  1026hPa Calm     97% 0.00in /  0mm 199 W/m2
09:59 55.8 °F /  13.2 °C 55 °F /  12.8 °C 30.30in /  1026hPa North 0.2mph /  0.3km/h 3mph /  4.8km/h 97% 0.00in /  0mm 320 W/m2
10:04 56.3 °F /  13.5 °C 55.5 °F /  13.1 °C 30.30in /  1026hPa Calm   3mph /  4.8km/h 97% 0.00in /  0mm 334 W/m2
10:09 56.6 °F /  13.7 °C 55.8 °F /  13.2 °C 30.30in /  1026hPa North 0.1mph /  0.2km/h 2mph /  3.2km/h 97% 0.00in /  0mm 320 W/m2
10:14 56.9 °F /  13.8 °C 56 °F /  13.3 °C 30.30in /  1026hPa Calm   2mph /  3.2km/h 97% 0.00in /  0mm 281 W/m2
10:19 57.2 °F /  14 °C 56.4 °F /  13.6 °C 30.30in /  1026hPa Calm   2mph /  3.2km/h 97% 0.00in /  0mm 295 W/m2
10:24 57.5 °F /  14.2 °C 56.7 °F /  13.7 °C 30.30in /  1026hPa Calm   2mph /  3.2km/h 97% 0.00in /  0mm 320 W/m2
10:29 57.9 °F /  14.4 °C 57 °F /  13.9 °C 30.30in /  1026hPa Calm   2mph /  3.2km/h 97% 0.00in /  0mm 320 W/m2
10:34 58.5 °F /  14.7 °C 57.7 °F /  14.3 °C 30.30in /  1026hPa Calm   2mph /  3.2km/h 97% 0.00in /  0mm 640 W/m2
10:39 59.4 °F /  15.2 °C 58.6 °F /  14.8 °C 30.30in /  1026hPa Calm     97% 0.00in /  0mm 631 W/m2
10:44 60.4 °F /  15.8 °C 59.6 °F /  15.3 °C 30.29in /  1025.6hPa North 0.1mph /  0.2km/h 2mph /  3.2km/h 97% 0.00in /  0mm 633 W/m2
10:49 61 °F /  16.1 °C 60.2 °F /  15.7 °C 30.29in /  1025.6hPa Calm   2mph /  3.2km/h 97% 0.00in /  0mm 636 W/m2
10:54 62.4 °F /  16.9 °C 61.4 °F /  16.3 °C 30.29in /  1025.6hPa North 0.1mph /  0.2km/h 2mph /  3.2km/h 96.5% 0.00in /  0mm 645 W/m2
10:59 63.5 °F /  17.5 °C 61.8 °F /  16.6 °C 30.29in /  1025.6hPa Calm   2mph /  3.2km/h 94% 0.00in /  0mm 657 W/m2
11:04 64.9 °F /  18.3 °C 62.2 °F /  16.8 °C 30.29in /  1025.6hPa Calm   2mph /  3.2km/h 91.1% 0.00in /  0mm 664 W/m2
11:09 65.9 °F /  18.8 °C 61.8 °F /  16.6 °C 30.28in /  1025.3hPa North 0.1mph /  0.2km/h 2mph /  3.2km/h 86.9% 0.00in /  0mm 670 W/m2
11:14 66.7 °F /  19.3 °C 62.1 °F /  16.7 °C 30.28in /  1025.3hPa Calm   2mph /  3.2km/h 85.1% 0.00in /  0mm 677 W/m2
11:19 67.4 °F /  19.7 °C 62.3 °F /  16.8 °C 30.28in /  1025.3hPa Calm   2mph /  3.2km/h 83.7% 0.00in /  0mm 684 W/m2
11:24 67.8 °F /  19.9 °C 61.5 °F /  16.4 °C 30.28in /  1025.3hPa Calm   2mph /  3.2km/h 80.3% 0.00in /  0mm 686 W/m2
11:29 67.9 °F /  19.9 °C 61.3 °F /  16.3 °C 30.28in /  1025.3hPa NE 0.1mph /  0.2km/h 3mph /  4.8km/h 79.3% 0.00in /  0mm 469 W/m2
11:34 67.8 °F /  19.9 °C 60.9 °F /  16.1 °C 30.28in /  1025.3hPa NE 0.1mph /  0.2km/h 3mph /  4.8km/h 78.5% 0.00in /  0mm 246 W/m2
11:39 67.8 °F /  19.9 °C 61.2 °F /  16.2 °C 30.28in /  1025.3hPa Calm   2mph /  3.2km/h 79.6% 0.00in /  0mm 218 W/m2
11:44 68 °F /  20 °C 61.5 °F /  16.4 °C 30.27in /  1024.9hPa NE 0.1mph /  0.2km/h 2mph /  3.2km/h 79.9% 0.00in /  0mm 190 W/m2
11:49 68.1 °F /  20.1 °C 61.1 °F /  16.2 °C 30.27in /  1024.9hPa Calm   2mph /  3.2km/h 78.3% 0.00in /  0mm 83 W/m2
11:54 68.1 °F /  20.1 °C 61.1 °F /  16.2 °C 30.27in /  1024.9hPa NE 0.1mph /  0.2km/h 3mph /  4.8km/h 78.3% 0.00in /  0mm 267 W/m2
11:55 68.2 °F /  20.1 °C 61.4 °F /  16.3 °C 30.27in /  1024.9hPa Calm   3mph /  4.8km/h 79% 0.00in /  0mm 188 W/m2
12:09 68.6 °F /  20.3 °C 61.3 °F /  16.3 °C 30.26in /  1024.6hPa Calm     77.6% 0.00in /  0mm 174 W/m2
12:14 68.6 °F /  20.3 °C 61 °F /  16.1 °C 30.26in /  1024.6hPa Calm     76.7% 0.00in /  0mm 218 W/m2
12:19 68.8 °F /  20.4 °C 61.3 °F /  16.3 °C 30.26in /  1024.6hPa Calm     77% 0.00in /  0mm 394 W/m2
12:24 69.1 °F /  20.6 °C 61.5 °F /  16.4 °C 30.26in /  1024.6hPa Calm   1mph /  1.6km/h 76.8% 0.00in /  0mm 422 W/m2
12:29 69.5 °F /  20.8 °C 61.1 °F /  16.2 °C 30.26in /  1024.6hPa NE 0.1mph /  0.2km/h 2mph /  3.2km/h 74.7% 0.00in /  0mm 285 W/m2
12:34 69.6 °F /  20.9 °C 61.3 °F /  16.3 °C 30.26in /  1024.6hPa Calm   2mph /  3.2km/h 74.8% 0.00in /  0mm 116 W/m2
12:39 69.8 °F /  21 °C 61 °F /  16.1 °C 30.25in /  1024.3hPa Calm   1mph /  1.6km/h 73.8% 0.00in /  0mm 285 W/m2
12:44 69.9 °F /  21.1 °C 61.2 °F /  16.2 °C 30.25in /  1024.3hPa Calm   2mph /  3.2km/h 73.9% 0.00in /  0mm 234 W/m2
12:49 69.9 °F /  21.1 °C 60.9 °F /  16.1 °C 30.25in /  1024.3hPa Calm   2mph /  3.2km/h 72.9% 0.00in /  0mm 67 W/m2
12:54 69.8 °F /  21 °C 60 °F /  15.6 °C 30.25in /  1024.3hPa NE 0.1mph /  0.2km/h 2mph /  3.2km/h 71.1% 0.00in /  0mm 62 W/m2
12:59 69.7 °F /  20.9 °C 60.4 °F /  15.8 °C 30.24in /  1023.9hPa NE 0.3mph /  0.5km/h 2mph /  3.2km/h 72.2% 0.00in /  0mm 172 W/m2
13:04 69.7 °F /  20.9 °C 59.6 °F /  15.3 °C 30.24in /  1023.9hPa Calm   2mph /  3.2km/h 70.2% 0.00in /  0mm 636 W/m2
13:09 69.9 °F /  21.1 °C 59.7 °F /  15.4 °C 30.24in /  1023.9hPa Calm     70% 0.00in /  0mm 594 W/m2
13:14 70.1 °F /  21.2 °C 59.3 °F /  15.2 °C 30.24in /  1023.9hPa Calm     68.6% 0.00in /  0mm 596 W/m2
13:19 70.3 °F /  21.3 °C 59.8 °F /  15.4 °C 30.24in /  1023.9hPa North 2.5mph /  4km/h 5mph /  8km/h 69.5% 0.00in /  0mm 552 W/m2
13:24 70.6 °F /  21.4 °C 59.6 °F /  15.3 °C 30.24in /  1023.9hPa Calm   5mph /  8km/h 68.4% 0.00in /  0mm 253 W/m2
13:29 70.7 °F /  21.5 °C 59.2 °F /  15.1 °C 30.23in /  1023.6hPa SE 0.4mph /  0.6km/h 5mph /  8km/h 66.9% 0.00in /  0mm 253 W/m2
13:34 70.7 °F /  21.5 °C 59.4 °F /  15.2 °C 30.23in /  1023.6hPa Calm   5mph /  8km/h 67.3% 0.00in /  0mm 86 W/m2
13:39 70.8 °F /  21.6 °C 59.6 °F /  15.3 °C 30.22in /  1023.2hPa Calm     67.7% 0.00in /  0mm 165 W/m2
13:44 70.8 °F /  21.6 °C 59.2 °F /  15.1 °C 30.22in /  1023.2hPa Calm     66.8% 0.00in /  0mm 70 W/m2
13:49 70.9 °F /  21.6 °C 60 °F /  15.6 °C 30.22in /  1023.2hPa Calm   1mph /  1.6km/h 68.6% 0.00in /  0mm 95 W/m2
13:54 71.1 °F /  21.7 °C 60.1 °F /  15.6 °C 30.22in /  1023.2hPa SE 0.3mph /  0.5km/h 3mph /  4.8km/h 68.4% 0.00in /  0mm 109 W/m2
13:59 71.3 °F /  21.8 °C 60.1 °F /  15.6 °C 30.21in /  1022.9hPa SSE 0.2mph /  0.3km/h 3mph /  4.8km/h 67.7% 0.00in /  0mm 91 W/m2
14:04 71.6 °F /  22 °C 60 °F /  15.6 °C 30.21in /  1022.9hPa Calm   3mph /  4.8km/h 66.8% 0.00in /  0mm 146 W/m2
14:09 71.8 °F /  22.1 °C 60.2 °F /  15.7 °C 30.21in /  1022.9hPa SE 0.4mph /  0.6km/h 2mph /  3.2km/h 66.9% 0.00in /  0mm 70 W/m2
14:14 72 °F /  22.2 °C 60 °F /  15.6 °C 30.21in /  1022.9hPa ESE 1.8mph /  2.9km/h 4mph /  6.4km/h 66.1% 0.00in /  0mm 70 W/m2
14:19 72 °F /  22.2 °C 59.7 °F /  15.4 °C 30.21in /  1022.9hPa East 0.4mph /  0.6km/h 4mph /  6.4km/h 65.3% 0.00in /  0mm 90 W/m2
14:24 71.9 °F /  22.2 °C 59.6 °F /  15.3 °C 30.21in /  1022.9hPa Calm   4mph /  6.4km/h 65.2% 0.00in /  0mm 113 W/m2
14:29 71.7 °F /  22.1 °C 59.1 °F /  15.1 °C 30.20in /  1022.6hPa East 0.1mph /  0.2km/h 4mph /  6.4km/h 64.5% 0.00in /  0mm 113 W/m2
14:34 71.7 °F /  22.1 °C 59.5 °F /  15.3 °C 30.20in /  1022.6hPa Calm   4mph /  6.4km/h 65.5% 0.00in /  0mm 83 W/m2
14:39 71.9 °F /  22.2 °C 59.8 °F /  15.4 °C 30.20in /  1022.6hPa South 0.3mph /  0.5km/h 4mph /  6.4km/h 65.7% 0.00in /  0mm 91 W/m2
14:44 72.1 °F /  22.3 °C 59.4 °F /  15.2 °C 30.20in /  1022.6hPa South 0.6mph /  1km/h 4mph /  6.4km/h 64.3% 0.00in /  0mm 79 W/m2
14:49 72.2 °F /  22.3 °C 59.2 °F /  15.1 °C 30.20in /  1022.6hPa South 1.2mph /  1.9km/h 4mph /  6.4km/h 63.7% 0.00in /  0mm 121 W/m2
14:54 72.2 °F /  22.3 °C 59.2 °F /  15.1 °C 30.19in /  1022.2hPa SSW 1.2mph /  1.9km/h 4mph /  6.4km/h 63.6% 0.00in /  0mm 88 W/m2
14:59 72.2 °F /  22.3 °C 59.5 °F /  15.3 °C 30.19in /  1022.2hPa WSW 2.6mph /  4.2km/h 5mph /  8km/h 64.5% 0.00in /  0mm 62 W/m2
15:04 72.1 °F /  22.3 °C 59.7 °F /  15.4 °C 30.19in /  1022.2hPa NW 1.6mph /  2.6km/h 5mph /  8km/h 65% 0.00in /  0mm 79 W/m2
15:09 72.2 °F /  22.3 °C 59.4 °F /  15.2 °C 30.19in /  1022.2hPa NNW 0.2mph /  0.3km/h 4mph /  6.4km/h 64.1% 0.00in /  0mm 77 W/m2
15:14 72.3 °F /  22.4 °C 59.5 °F /  15.3 °C 30.19in /  1022.2hPa NNW 0.6mph /  1km/h 4mph /  6.4km/h 64.1% 0.00in /  0mm 74 W/m2
15:19 72.4 °F /  22.4 °C 58.8 °F /  14.9 °C 30.19in /  1022.2hPa NNE 1.3mph /  2.1km/h 4mph /  6.4km/h 62.4% 0.00in /  0mm 114 W/m2
15:24 72.6 °F /  22.6 °C 59.3 °F /  15.2 °C 30.19in /  1022.2hPa NNE 0.9mph /  1.4km/h 4mph /  6.4km/h 63% 0.00in /  0mm 204 W/m2
15:29 72.8 °F /  22.7 °C 59.2 °F /  15.1 °C 30.19in /  1022.2hPa NNE 0.4mph /  0.6km/h 4mph /  6.4km/h 62.3% 0.00in /  0mm 202 W/m2
15:34 72.9 °F /  22.7 °C 59.4 °F /  15.2 °C 30.18in /  1021.9hPa NNE 0.4mph /  0.6km/h 4mph /  6.4km/h 62.8% 0.00in /  0mm 100 W/m2
15:39 73 °F /  22.8 °C 59.2 °F /  15.1 °C 30.18in /  1021.9hPa NNE 0.5mph /  0.8km/h 3mph /  4.8km/h 61.9% 0.00in /  0mm 118 W/m2
15:44 73 °F /  22.8 °C 59.3 °F /  15.2 °C 30.18in /  1021.9hPa NNE 1.1mph /  1.8km/h 3mph /  4.8km/h 62.2% 0.00in /  0mm 44 W/m2
15:49 73 °F /  22.8 °C 58.6 °F /  14.8 °C 30.18in /  1021.9hPa NNE 0.4mph /  0.6km/h 3mph /  4.8km/h 60.7% 0.00in /  0mm 28 W/m2
15:54 72.9 °F /  22.7 °C 58.8 °F /  14.9 °C 30.18in /  1021.9hPa NNE 0.6mph /  1km/h 3mph /  4.8km/h 61.2% 0.00in /  0mm 26 W/m2
15:59 72.8 °F /  22.7 °C 58.5 °F /  14.7 °C 30.18in /  1021.9hPa NNE 0.4mph /  0.6km/h 3mph /  4.8km/h 60.9% 0.00in /  0mm 26 W/m2
16:00 72.8 °F /  22.7 °C 58.6 °F /  14.8 °C 30.18in /  1021.9hPa Calm   3mph /  4.8km/h 61% 0.00in /  0mm 25 W/m2
16:09 72.7 °F /  22.6 °C 59.1 °F /  15.1 °C 30.17in /  1021.6hPa NNE 0.4mph /  0.6km/h 2mph /  3.2km/h 62.4% 0.00in /  0mm 25 W/m2
16:14 72.6 °F /  22.6 °C 58.2 °F /  14.6 °C 30.17in /  1021.6hPa Calm   2mph /  3.2km/h 60.6% 0.00in /  0mm 25 W/m2
16:19 72.5 °F /  22.5 °C 58 °F /  14.4 °C 30.17in /  1021.6hPa NNE 0.1mph /  0.2km/h 2mph /  3.2km/h 60.5% 0.00in /  0mm 23 W/m2
16:24 72.4 °F /  22.4 °C 58.3 °F /  14.6 °C 30.17in /  1021.6hPa Calm   2mph /  3.2km/h 61.2% 0.00in /  0mm 23 W/m2
16:29 72.4 °F /  22.4 °C 58.3 °F /  14.6 °C 30.17in /  1021.6hPa NNE 0.4mph /  0.6km/h 2mph /  3.2km/h 61.2% 0.00in /  0mm 23 W/m2
16:34 72.3 °F /  22.4 °C 58.6 °F /  14.8 °C 30.17in /  1021.6hPa Calm   2mph /  3.2km/h 62% 0.00in /  0mm 23 W/m2
16:39 72.3 °F /  22.4 °C 59 °F /  15 °C 30.17in /  1021.6hPa NNE 0.3mph /  0.5km/h 3mph /  4.8km/h 63% 0.00in /  0mm 21 W/m2
16:44 72.2 °F /  22.3 °C 59 °F /  15 °C 30.17in /  1021.6hPa NNE 0.5mph /  0.8km/h 3mph /  4.8km/h 63.2% 0.00in /  0mm 21 W/m2
16:49 72.2 °F /  22.3 °C 58.5 °F /  14.7 °C 30.17in /  1021.6hPa Calm   3mph /  4.8km/h 62% 0.00in /  0mm 21 W/m2
16:54 72.2 °F /  22.3 °C 58.7 °F /  14.8 °C 30.17in /  1021.6hPa Calm   3mph /  4.8km/h 62.5% 0.00in /  0mm 19 W/m2
16:59 72.1 °F /  22.3 °C 58.8 °F /  14.9 °C 30.16in /  1021.2hPa Calm   3mph /  4.8km/h 63% 0.00in /  0mm 19 W/m2
17:04 72 °F /  22.2 °C 58.8 °F /  14.9 °C 30.16in /  1021.2hPa Calm   3mph /  4.8km/h 63.4% 0.00in /  0mm 19 W/m2
17:09 71.8 °F /  22.1 °C 59 °F /  15 °C 30.16in /  1021.2hPa Calm   1mph /  1.6km/h 64% 0.00in /  0mm 19 W/m2
17:14 71.7 °F /  22.1 °C 58.9 °F /  14.9 °C 30.16in /  1021.2hPa Calm   1mph /  1.6km/h 64% 0.00in /  0mm 18 W/m2
17:19 71.6 °F /  22 °C 59.4 °F /  15.2 °C 30.16in /  1021.2hPa Calm   1mph /  1.6km/h 65.4% 0.00in /  0mm 18 W/m2
17:24 71.5 °F /  21.9 °C 59.3 °F /  15.2 °C 30.16in /  1021.2hPa Calm   1mph /  1.6km/h 65.4% 0.00in /  0mm 16 W/m2
17:29 71.3 °F /  21.8 °C 58.9 °F /  14.9 °C 30.16in /  1021.2hPa Calm   1mph /  1.6km/h 65% 0.00in /  0mm 16 W/m2
17:34 71.2 °F /  21.8 °C 59.1 °F /  15.1 °C 30.16in /  1021.2hPa Calm   1mph /  1.6km/h 65.7% 0.00in /  0mm 14 W/m2
17:39 71 °F /  21.7 °C 59.1 °F /  15.1 °C 30.16in /  1021.2hPa Calm     66% 0.00in /  0mm 14 W/m2
17:44 70.9 °F /  21.6 °C 59.2 °F /  15.1 °C 30.16in /  1021.2hPa Calm     66.6% 0.00in /  0mm 12 W/m2
17:49 70.7 °F /  21.5 °C 59.3 °F /  15.2 °C 30.16in /  1021.2hPa Calm     67% 0.00in /  0mm 12 W/m2
17:54 70.6 °F /  21.4 °C 59.1 °F /  15.1 °C 30.16in /  1021.2hPa Calm     67.1% 0.00in /  0mm 11 W/m2
17:59 70.4 °F /  21.3 °C 59.3 °F /  15.2 °C 30.16in /  1021.2hPa Calm     68% 0.00in /  0mm 9 W/m2
18:04 70.2 °F /  21.2 °C 59.5 °F /  15.3 °C 30.16in /  1021.2hPa Calm     68.8% 0.00in /  0mm 7 W/m2
18:09 70 °F /  21.1 °C 59.4 °F /  15.2 °C 30.16in /  1021.2hPa Calm     69% 0.00in /  0mm 5 W/m2
18:14 69.7 °F /  20.9 °C 59.2 °F /  15.1 °C 30.16in /  1021.2hPa Calm     69.2% 0.00in /  0mm 5 W/m2
18:19 69.5 °F /  20.8 °C 59.2 °F /  15.1 °C 30.16in /  1021.2hPa Calm     69.8% 0.00in /  0mm 0 W/m2
18:24 69.3 °F /  20.7 °C 59.2 °F /  15.1 °C 30.16in /  1021.2hPa Calm     70.3% 0.00in /  0mm 0 W/m2
18:29 69.1 °F /  20.6 °C 59.4 °F /  15.2 °C 30.16in /  1021.2hPa Calm     71.3% 0.00in /  0mm 0 W/m2
18:34 68.9 °F /  20.5 °C 59.8 °F /  15.4 °C 30.16in /  1021.2hPa Calm     73% 0.00in /  0mm 0 W/m2
18:39 68.6 °F /  20.3 °C 60 °F /  15.6 °C 30.16in /  1021.2hPa Calm     74% 0.00in /  0mm 0 W/m2
18:44 68.3 °F /  20.2 °C 59.9 °F /  15.5 °C 30.16in /  1021.2hPa Calm     74.5% 0.00in /  0mm 0 W/m2
18:49 67.9 °F /  19.9 °C 59.7 °F /  15.4 °C 30.16in /  1021.2hPa Calm     75% 0.00in /  0mm 0 W/m2
18:54 67.5 °F /  19.7 °C 59.7 °F /  15.4 °C 30.16in /  1021.2hPa Calm     75.8% 0.00in /  0mm 0 W/m2
18:59 67.2 °F /  19.6 °C 59.8 °F /  15.4 °C 30.16in /  1021.2hPa Calm     77% 0.00in /  0mm 0 W/m2
19:04 66.9 °F /  19.4 °C 59.7 °F /  15.4 °C 30.16in /  1021.2hPa Calm     77.8% 0.00in /  0mm 0 W/m2
19:09 66.5 °F /  19.2 °C 59.6 °F /  15.3 °C 30.16in /  1021.2hPa Calm     78.3% 0.00in /  0mm 0 W/m2
19:14 66.2 °F /  19 °C 59.5 °F /  15.3 °C 30.16in /  1021.2hPa Calm     79% 0.00in /  0mm 0 W/m2
19:19 65.9 °F /  18.8 °C 59.6 °F /  15.3 °C 30.16in /  1021.2hPa Calm     80% 0.00in /  0mm 0 W/m2
19:24 65.6 °F /  18.7 °C 59.5 °F /  15.3 °C 30.16in /  1021.2hPa Calm     80.5% 0.00in /  0mm 0 W/m2
19:29 65.4 °F /  18.6 °C 59.5 °F /  15.3 °C 30.16in /  1021.2hPa Calm     81.3% 0.00in /  0mm 0 W/m2
19:34 65.2 °F /  18.4 °C 59.8 °F /  15.4 °C 30.16in /  1021.2hPa Calm     82.6% 0.00in /  0mm 0 W/m2
19:39 65 °F /  18.3 °C 59.7 °F /  15.4 °C 30.16in /  1021.2hPa Calm     83% 0.00in /  0mm 0 W/m2
19:44 64.8 °F /  18.2 °C 59.8 °F /  15.4 °C 30.16in /  1021.2hPa Calm     83.7% 0.00in /  0mm 0 W/m2
19:49 64.6 °F /  18.1 °C 59.7 °F /  15.4 °C 30.16in /  1021.2hPa Calm     84% 0.00in /  0mm 0 W/m2
19:54 64.5 °F /  18.1 °C 59.5 °F /  15.3 °C 30.16in /  1021.2hPa Calm     84% 0.00in /  0mm 0 W/m2
19:59 64.3 °F /  17.9 °C 59.4 °F /  15.2 °C 30.16in /  1021.2hPa Calm     84.3% 0.00in /  0mm 0 W/m2
20:00 64.2 °F /  17.9 °C 59.6 °F /  15.3 °C 30.16in /  1021.2hPa Calm     85% 0.00in /  0mm 0 W/m2
20:09 63.9 °F /  17.7 °C 59.3 °F /  15.2 °C 30.15in /  1020.9hPa Calm     85% 0.00in /  0mm 0 W/m2
20:14 63.7 °F /  17.6 °C 59.3 °F /  15.2 °C 30.15in /  1020.9hPa Calm     85.6% 0.00in /  0mm 0 W/m2
20:19 63.6 °F /  17.6 °C 59.3 °F /  15.2 °C 30.15in /  1020.9hPa Calm     86% 0.00in /  0mm 0 W/m2
20:24 63.4 °F /  17.4 °C 59.2 °F /  15.1 °C 30.15in /  1020.9hPa Calm     86.2% 0.00in /  0mm 0 W/m2
20:29 63.2 °F /  17.3 °C 59.3 °F /  15.2 °C 30.15in /  1020.9hPa Calm     86.9% 0.00in /  0mm 0 W/m2
20:34 63.1 °F /  17.3 °C 59.2 °F /  15.1 °C 30.15in /  1020.9hPa Calm     87% 0.00in /  0mm 0 W/m2
20:39 62.9 °F /  17.2 °C 59 °F /  15 °C 30.15in /  1020.9hPa Calm     87% 0.00in /  0mm 0 W/m2
20:44 62.8 °F /  17.1 °C 59.1 °F /  15.1 °C 30.15in /  1020.9hPa Calm     87.8% 0.00in /  0mm 0 W/m2
20:49 62.6 °F /  17 °C 59 °F /  15 °C 30.15in /  1020.9hPa Calm     88% 0.00in /  0mm 0 W/m2
20:54 62.5 °F /  16.9 °C 58.9 °F /  14.9 °C 30.15in /  1020.9hPa Calm     88% 0.00in /  0mm 0 W/m2
20:59 62.3 °F /  16.8 °C 58.8 °F /  14.9 °C 30.15in /  1020.9hPa Calm     88.2% 0.00in /  0mm 0 W/m2
21:04 62.2 °F /  16.8 °C 58.8 °F /  14.9 °C 30.15in /  1020.9hPa Calm     88.8% 0.00in /  0mm 0 W/m2
21:09 62 °F /  16.7 °C 58.7 °F /  14.8 °C 30.15in /  1020.9hPa Calm     89% 0.00in /  0mm 0 W/m2
21:14 61.8 °F /  16.6 °C 58.7 °F /  14.8 °C 30.15in /  1020.9hPa Calm     89.3% 0.00in /  0mm 0 W/m2
21:19 61.7 °F /  16.5 °C 58.8 °F /  14.9 °C 30.15in /  1020.9hPa Calm     90% 0.00in /  0mm 0 W/m2
21:24 61.6 °F /  16.4 °C 58.6 °F /  14.8 °C 30.15in /  1020.9hPa Calm     90% 0.00in /  0mm 0 W/m2
21:29 61.5 °F /  16.4 °C 58.5 °F /  14.7 °C 30.15in /  1020.9hPa Calm     90% 0.00in /  0mm 0 W/m2
21:34 61.4 °F /  16.3 °C 58.7 °F /  14.8 °C 30.15in /  1020.9hPa Calm     91% 0.00in /  0mm 0 W/m2
21:39 61.3 °F /  16.3 °C 58.6 °F /  14.8 °C 30.15in /  1020.9hPa Calm     91% 0.00in /  0mm 0 W/m2
21:44 61.2 °F /  16.2 °C 58.6 °F /  14.8 °C 30.15in /  1020.9hPa Calm     91% 0.00in /  0mm 0 W/m2
21:49 61.1 °F /  16.2 °C 58.4 °F /  14.7 °C 30.15in /  1020.9hPa Calm     91% 0.00in /  0mm 0 W/m2
21:54 60.9 °F /  16.1 °C 58.3 °F /  14.6 °C 30.15in /  1020.9hPa Calm     91% 0.00in /  0mm 0 W/m2
21:59 60.8 °F /  16 °C 58.1 °F /  14.5 °C 30.15in /  1020.9hPa Calm     91% 0.00in /  0mm 0 W/m2
22:04 60.7 °F /  15.9 °C 58.1 °F /  14.5 °C 30.15in /  1020.9hPa Calm     91% 0.00in /  0mm 0 W/m2
22:09 60.7 °F /  15.9 °C 58.3 °F /  14.6 °C 30.15in /  1020.9hPa Calm     91.7% 0.00in /  0mm 0 W/m2
22:14 60.6 °F /  15.9 °C 58.3 °F /  14.6 °C 30.14in /  1020.5hPa Calm     92% 0.00in /  0mm 0 W/m2
22:19 60.5 °F /  15.8 °C 58.2 °F /  14.6 °C 30.14in /  1020.5hPa Calm     92% 0.00in /  0mm 0 W/m2
22:24 60.4 °F /  15.8 °C 58.1 °F /  14.5 °C 30.14in /  1020.5hPa Calm     92% 0.00in /  0mm 0 W/m2
22:29 60.3 °F /  15.7 °C 58 °F /  14.4 °C 30.14in /  1020.5hPa Calm     92% 0.00in /  0mm 0 W/m2
22:34 60.2 °F /  15.7 °C 57.9 °F /  14.4 °C 30.14in /  1020.5hPa Calm     92% 0.00in /  0mm 0 W/m2
22:37 60.2 °F /  15.7 °C 57.9 °F /  14.4 °C 30.14in /  1020.5hPa Calm     92% 0.00in /  0mm 0 W/m2
23:00 59.8 °F /  15.4 °C 57.8 °F /  14.3 °C 30.14in /  1020.5hPa Calm     93% 0.00in /  0mm 0 W/m2
23:30 59.6 °F /  15.3 °C 57.6 °F /  14.2 °C 30.14in /  1020.5hPa Calm     93% 0.00in /  0mm 0 W/m2
Hartford County Weather
Compliments of Weather Underground - 4 mb